Disney Magic — C6PT7 — position and weather

sailwx.info

Track history (hours):
 
Tides and Currents Weather Stations Pressure Air Temp Water Temp Dewpoint Dewpoint Depression Visibility Wind Speed Wind Dir Waves Ship Positions

Disney Magic

Last reported at 2014-Nov-29 06:33 UTC. Time now 2014-Nov-29 07:29 UTC.
Position N 25°55' W 079°25'.

Type: Passenger vessel. MMSI: 308516000.

Date/timePositionNaut miles runAvg speedWind from/ knotsBaromVisibWave heightAir tempDewpointWater temp
2014-Nov-29 06:33N 25°55' W 079°25'1817.7
2014-Nov-29 05:33N 25°39' W 079°33'  
2014-Nov-25 01:16N 24°27' W 081°49'98 6.6
2014-Nov-24 10:23N 25°04' W 080°09'3719.7
2014-Nov-24 08:30N 25°40' W 079°58'1818.9
2014-Nov-24 07:33N 25°58' W 079°57'1918.6
2014-Nov-24 06:33N 26°16' W 079°56'1818.3
2014-Nov-24 05:33N 26°34' W 079°56'1818.2
2014-Nov-24 04:33N 26°53' W 079°56'67 2.3
2014-Nov-22 23:00N 26°24' W 078°48'   080 / 301015.0 2.2 25.020.726.0
Track history (hours):
 
Tides and Currents Weather Stations Pressure Air Temp Water Temp Dewpoint Dewpoint Depression Visibility Wind Speed Wind Dir Waves Ship Positions

Disney Magic

Last reported at 2014-Nov-29 06:33 UTC. Time now 2014-Nov-29 07:29 UTC.
Position N 25°55' W 079°25'.

Type: Passenger vessel. MMSI: 308516000.

Date/timePositionNaut miles runAvg speedWind from/ knotsBaromVisibWave heightAir tempDewpointWater temp
2014-Nov-29 06:33N 25°55' W 079°25'1817.7
2014-Nov-29 05:33N 25°39' W 079°33'  
2014-Nov-25 01:16N 24°27' W 081°49'98 6.6
2014-Nov-24 10:23N 25°04' W 080°09'3719.7
2014-Nov-24 08:30N 25°40' W 079°58'1818.9
2014-Nov-24 07:33N 25°58' W 079°57'1918.6
2014-Nov-24 06:33N 26°16' W 079°56'1818.3
2014-Nov-24 05:33N 26°34' W 079°56'1818.2
2014-Nov-24 04:33N 26°53' W 079°56'67 2.3
2014-Nov-22 23:00N 26°24' W 078°48'   080 / 301015.0 2.2 25.020.726.0

Dump ship's entire track history